Linch, Wyoming
Current Conditions -  °F | °C
As of 9:53 AM on Thursday 27 Nov 2014 (Local Time) from KCPR Reporting Station
Clear Clear  
Wind Chill:   Ceiling: Unl
Heat Index:   Visibility: 10mi
Dew Point: -4°   Wind: 24mph
Humidity: 45%   Direction: 220°SW
Pressure: 30.11"   Gusts: 32mph
Location:  43.61°N, 106.2°W
Report Text: KCPR 271653Z 22021G28KT 10SM CLR 07/M04 A3011 RMK AO2 PK WND 22031/1638 SLP213 T00671044
Loading
Personal Weather Stations






























Interactive Weather Map New forecast layout! Learn more

10-Day Weather Forecast

Advertisements
Track Severe Weather on mobile